Time;durP1;ratioP1;P1;durP2;ratioP2;P2;SDS_P1;SDS_P2;PMS_P1;PMS_P2;Temp;Humidity;BMP_temperature;BMP_pressure;BME280_temperature;BME280_humidity;BME280_pressure;Samples;Min_cycle;Max_cycle;Signal;HPM_P1;HPM_P2
2022/08/03 00:00:25;;;;;;;0.00;0.00;;;19.60;99.90;;;;;;4988510;28;20049;-83
2022/08/03 00:02:52;;;;;;;0.00;0.00;;;19.60;99.90;;;;;;5007099;28;20050;-84
2022/08/03 00:05:19;;;;;;;0.00;0.00;;;19.50;99.90;;;;;;4995013;28;20076;-83
2022/08/03 00:07:46;;;;;;;0.00;0.00;;;19.50;99.90;;;;;;4989327;28;20046;-83
2022/08/03 00:10:16;;;;;;;0.00;0.00;;;19.50;99.90;;;;;;4991716;28;20061;-83
2022/08/03 00:12:43;;;;;;;0.00;0.00;;;19.50;99.90;;;;;;5001390;28;20120;-81
2022/08/03 00:15:10;;;;;;;0.00;0.00;;;19.40;99.90;;;;;;4981918;28;20158;-84
2022/08/03 00:17:42;;;;;;;0.00;0.00;;;19.30;99.90;;;;;;5004138;28;20554;-84
2022/08/03 00:20:20;;;;;;;0.00;0.00;;;19.30;99.90;;;;;;4985418;28;20054;-83
2022/08/03 00:22:46;;;;;;;0.00;0.00;;;19.30;99.90;;;;;;4991742;28;20465;-83
2022/08/03 00:25:13;;;;;;;0.00;0.00;;;19.30;99.90;;;;;;4996498;28;20050;-83
2022/08/03 00:27:41;;;;;;;0.00;0.00;;;19.30;99.90;;;;;;4994147;28;20040;-83
2022/08/03 00:30:09;;;;;;;0.00;0.00;;;19.20;99.90;;;;;;4987877;28;20046;-83
2022/08/03 00:32:36;;;;;;;0.00;0.00;;;19.20;99.90;;;;;;4992891;28;20062;-83
2022/08/03 00:35:05;;;;;;;0.00;0.00;;;19.20;99.90;;;;;;4990544;28;20121;-83
2022/08/03 00:37:37;;;;;;;0.00;0.00;;;19.20;99.90;;;;;;4988118;28;20070;-83
2022/08/03 00:40:09;;;;;;;0.00;0.00;;;19.20;99.90;;;;;;4986748;28;20049;-83
2022/08/03 00:42:47;;;;;;;0.00;0.00;;;19.10;99.90;;;;;;4992688;28;20093;-83
2022/08/03 00:45:14;;;;;;;0.00;0.00;;;19.10;99.90;;;;;;4987922;28;20526;-84
2022/08/03 00:47:41;;;;;;;0.00;0.00;;;19.10;99.90;;;;;;4992137;28;20498;-83
2022/08/03 00:50:08;;;;;;;0.00;0.00;;;19.00;99.90;;;;;;4989281;28;20038;-82
2022/08/03 00:52:35;;;;;;;0.00;0.00;;;19.00;99.90;;;;;;4987076;28;20034;-84
2022/08/03 00:55:03;;;;;;;0.00;0.00;;;19.00;99.90;;;;;;4989247;28;20162;-83
2022/08/03 00:57:31;;;;;;;0.00;0.00;;;19.00;99.90;;;;;;4997939;28;20053;-83
2022/08/03 00:59:59;;;;;;;0.00;0.00;;;18.90;99.90;;;;;;4995331;28;20041;-83
2022/08/03 01:02:26;;;;;;;0.00;0.00;;;18.90;99.90;;;;;;4989996;28;20042;-83
2022/08/03 01:04:54;;;;;;;0.00;0.00;;;18.80;99.90;;;;;;4986243;28;20100;-83
2022/08/03 01:07:30;;;;;;;0.00;0.00;;;18.80;99.90;;;;;;4990158;28;20108;-83
2022/08/03 01:10:02;;;;;;;0.00;0.00;;;18.70;99.90;;;;;;4988752;28;20043;-83
2022/08/03 01:12:37;;;;;;;0.00;0.00;;;18.70;99.90;;;;;;4989125;28;20050;-84
2022/08/03 01:15:12;;;;;;;0.00;0.00;;;18.70;99.90;;;;;;4984935;28;20050;-83
2022/08/03 01:17:48;;;;;;;0.00;0.00;;;18.70;99.90;;;;;;4995256;28;20050;-83
2022/08/03 01:20:17;;;;;;;0.00;0.00;;;18.60;99.90;;;;;;4985101;28;20121;-84
2022/08/03 01:23:07;;;;;;;0.00;0.00;;;18.60;99.90;;;;;;4998259;28;20053;-82
2022/08/03 01:25:48;;;;;;;0.00;0.00;;;18.60;99.90;;;;;;4994513;28;20411;-82
2022/08/03 01:28:37;;;;;;;0.00;0.00;;;18.60;99.90;;;;;;4990727;28;20054;-83
2022/08/03 01:31:07;;;;;;;0.00;0.00;;;18.60;99.90;;;;;;4992655;28;20050;-83
2022/08/03 01:33:37;;;;;;;0.00;0.00;;;18.50;99.90;;;;;;4992879;28;20121;-83
2022/08/03 01:36:08;;;;;;;0.00;0.00;;;18.60;99.90;;;;;;5008184;28;20046;-83
2022/08/03 01:38:41;;;;;;;0.00;0.00;;;18.40;99.90;;;;;;4995221;28;20115;-83
2022/08/03 01:41:12;;;;;;;0.00;0.00;;;18.40;99.90;;;;;;4990832;28;20053;-84
2022/08/03 01:43:43;;;;;;;0.00;0.00;;;18.40;99.90;;;;;;4992477;28;20042;-83
2022/08/03 01:46:32;;;;;;;0.00;0.00;;;18.30;99.90;;;;;;4989615;28;20404;-83
2022/08/03 01:49:02;;;;;;;0.00;0.00;;;18.30;99.90;;;;;;4987537;28;20059;-83
2022/08/03 01:51:36;;;;;;;0.00;0.00;;;18.30;99.90;;;;;;4994262;28;20049;-83
2022/08/03 01:54:24;;;;;;;0.00;0.00;;;18.20;99.90;;;;;;5007853;28;20058;-83
2022/08/03 01:56:53;;;;;;;0.00;0.00;;;18.20;99.90;;;;;;4993791;28;20057;-82
2022/08/03 01:59:21;;;;;;;0.00;0.00;;;18.10;99.90;;;;;;5007267;28;20575;-83
2022/08/03 02:01:49;;;;;;;0.00;0.00;;;18.10;99.90;;;;;;4998767;28;20042;-84
2022/08/03 02:04:38;;;;;;;0.00;0.00;;;18.10;99.90;;;;;;4984332;28;20056;-83
2022/08/03 02:07:06;;;;;;;0.00;0.00;;;18.10;99.90;;;;;;4992145;28;20046;-83
2022/08/03 02:09:36;;;;;;;0.00;0.00;;;18.10;99.90;;;;;;5002090;28;20046;-82
2022/08/03 02:12:07;;;;;;;0.08;0.08;;;18.10;99.90;;;;;;4990055;28;20097;-82
2022/08/03 02:14:35;;;;;;;0.00;0.00;;;18.10;99.90;;;;;;4992818;28;20046;-82
2022/08/03 02:17:05;;;;;;;0.00;0.00;;;18.00;99.90;;;;;;4995368;28;20050;-83
2022/08/03 02:19:33;;;;;;;0.00;0.00;;;18.00;99.90;;;;;;4988153;28;20077;-83
2022/08/03 02:22:02;;;;;;;0.00;0.00;;;17.90;99.90;;;;;;4987358;28;20060;-83
2022/08/03 02:24:30;;;;;;;0.00;0.00;;;17.90;99.90;;;;;;4991846;28;20498;-83
2022/08/03 02:26:58;;;;;;;0.00;0.00;;;17.90;99.90;;;;;;4992116;28;20506;-83
2022/08/03 02:29:30;;;;;;;0.00;0.00;;;17.90;99.90;;;;;;4988166;28;20026;-84
2022/08/03 02:32:10;;;;;;;0.00;0.00;;;17.90;99.90;;;;;;4985357;28;20054;-83
2022/08/03 02:34:40;;;;;;;0.00;0.00;;;17.80;99.90;;;;;;4994082;28;20093;-83
2022/08/03 02:37:09;;;;;;;0.00;0.00;;;17.80;99.90;;;;;;4992977;28;20042;-82
2022/08/03 02:39:38;;;;;;;0.00;0.00;;;17.80;99.90;;;;;;5001982;28;20429;-83
2022/08/03 02:42:07;;;;;;;0.00;0.00;;;17.80;99.90;;;;;;4987751;28;20046;-83
2022/08/03 02:44:36;;;;;;;0.00;0.00;;;17.70;99.90;;;;;;4987082;28;20046;-81
2022/08/03 02:47:06;;;;;;;0.00;0.00;;;17.80;99.90;;;;;;4988565;28;20050;-83
2022/08/03 02:49:37;;;;;;;0.00;0.00;;;17.70;99.90;;;;;;4994384;28;20037;-83
2022/08/03 02:52:18;;;;;;;0.00;0.00;;;17.60;99.90;;;;;;4988942;28;20098;-83
2022/08/03 02:54:47;;;;;;;0.00;0.00;;;17.60;99.90;;;;;;4989941;28;20050;-82
2022/08/03 02:57:15;;;;;;;0.00;0.00;;;17.60;99.90;;;;;;4989917;28;20046;-83
2022/08/03 02:59:43;;;;;;;0.00;0.00;;;17.60;99.90;;;;;;4991887;28;20046;-82
2022/08/03 03:02:11;;;;;;;0.00;0.00;;;17.50;99.90;;;;;;4998086;28;20114;-82
2022/08/03 03:04:40;;;;;;;0.00;0.00;;;17.50;99.90;;;;;;4986481;28;20059;-83
2022/08/03 03:07:28;;;;;;;0.00;0.00;;;17.40;99.90;;;;;;4989445;28;20060;-83
2022/08/03 03:10:01;;;;;;;0.00;0.00;;;17.50;99.90;;;;;;4995486;28;20053;-83
2022/08/03 03:12:29;;;;;;;0.00;0.00;;;17.50;99.90;;;;;;4988632;28;20100;-83
2022/08/03 03:14:56;;;;;;;0.00;0.00;;;17.50;99.90;;;;;;4993178;28;20144;-82
2022/08/03 03:17:24;;;;;;;0.00;0.00;;;17.50;99.90;;;;;;4995268;28;20454;-83
2022/08/03 03:19:53;;;;;;;0.00;0.00;;;17.50;99.90;;;;;;4989238;28;20517;-83
2022/08/03 03:22:21;;;;;;;0.00;0.00;;;17.40;99.90;;;;;;4995480;28;20097;-83
2022/08/03 03:24:50;;;;;;;0.00;0.00;;;17.40;99.90;;;;;;4991096;28;20054;-83
2022/08/03 03:27:17;;;;;;;0.00;0.00;;;17.20;99.90;;;;;;4995736;28;20054;-82
2022/08/03 03:29:44;;;;;;;0.00;0.00;;;17.20;99.90;;;;;;4991914;28;20462;-82
2022/08/03 03:32:11;;;;;;;0.05;0.05;;;17.20;99.90;;;;;;4988584;28;20109;-82
2022/08/03 03:34:39;;;;;;;0.00;0.00;;;17.20;99.90;;;;;;4989893;28;20088;-82
2022/08/03 03:37:11;;;;;;;0.00;0.00;;;17.20;99.90;;;;;;4992849;28;20053;-83
2022/08/03 03:39:38;;;;;;;0.00;0.00;;;17.10;99.90;;;;;;4990265;28;20515;-83
2022/08/03 03:42:05;;;;;;;0.00;0.00;;;17.10;99.90;;;;;;4985850;28;20058;-83
2022/08/03 03:44:31;;;;;;;0.00;0.00;;;17.10;99.90;;;;;;4982415;28;20034;-83
2022/08/03 03:46:59;;;;;;;0.00;0.00;;;17.20;99.90;;;;;;4987890;28;20042;-82
2022/08/03 03:49:26;;;;;;;0.00;0.00;;;17.20;99.90;;;;;;4989474;28;20049;-83
2022/08/03 03:51:53;;;;;;;0.00;0.00;;;17.20;99.90;;;;;;4996173;28;20046;-83
2022/08/03 03:54:22;;;;;;;0.00;0.00;;;17.20;99.90;;;;;;4987356;28;20391;-82
2022/08/03 03:56:54;;;;;;;0.00;0.00;;;17.20;99.90;;;;;;4989990;28;20049;-83
2022/08/03 03:59:21;;;;;;;0.00;0.00;;;17.20;99.90;;;;;;4990285;28;20042;-83
2022/08/03 04:01:48;;;;;;;0.00;0.00;;;17.20;99.90;;;;;;4989939;28;20049;-83
2022/08/03 04:20:31;;;;;;;0.00;0.00;;;17.20;99.90;;;;;;4950519;28;20079;-83
2022/08/03 04:22:59;;;;;;;0.00;0.00;;;17.30;99.90;;;;;;4951693;28;20035;-83
2022/08/03 04:25:29;;;;;;;0.00;0.00;;;17.20;99.90;;;;;;4948716;28;20054;-82
2022/08/03 04:27:59;;;;;;;0.00;0.00;;;17.20;99.90;;;;;;4953523;28;20047;-83
2022/08/03 04:30:49;;;;;;;0.00;0.00;;;17.20;99.90;;;;;;4951890;28;20049;-83
2022/08/03 04:33:17;;;;;;;0.00;0.00;;;17.20;99.90;;;;;;4951222;28;20051;-82
2022/08/03 04:35:48;;;;;;;0.00;0.00;;;17.20;99.90;;;;;;4952576;28;20047;-84
2022/08/03 04:38:30;;;;;;;0.00;0.00;;;17.20;99.90;;;;;;4951225;28;20062;-83
2022/08/03 04:40:58;;;;;;;0.00;0.00;;;17.30;99.90;;;;;;4949837;28;20035;-84
2022/08/03 04:43:26;;;;;;;0.00;0.00;;;17.30;99.90;;;;;;4968234;28;20341;-83
2022/08/03 04:45:53;;;;;;;0.00;0.00;;;17.30;99.90;;;;;;4952285;28;21442;-83
2022/08/03 04:48:20;;;;;;;0.00;0.00;;;17.40;99.90;;;;;;4953158;28;20047;-83
2022/08/03 04:50:49;;;;;;;0.00;0.00;;;17.30;99.90;;;;;;4951951;28;20054;-82
2022/08/03 04:53:17;;;;;;;0.00;0.00;;;17.30;99.90;;;;;;4952408;28;20646;-83
2022/08/03 04:55:45;;;;;;;0.00;0.00;;;17.40;99.90;;;;;;4952699;28;20042;-83
2022/08/03 04:58:12;;;;;;;0.00;0.00;;;17.40;99.90;;;;;;4953114;28;20086;-84
2022/08/03 05:00:39;;;;;;;0.00;0.00;;;17.40;99.90;;;;;;4970304;28;20035;-83
2022/08/03 05:03:06;;;;;;;0.00;0.00;;;17.40;99.90;;;;;;4953899;28;20036;-83
2022/08/03 05:05:51;;;;;;;0.00;0.00;;;17.50;99.90;;;;;;4956280;28;20051;-83
2022/08/03 05:08:19;;;;;;;0.00;0.00;;;17.50;99.90;;;;;;4954463;28;20051;-83
2022/08/03 05:10:54;;;;;;;0.00;0.00;;;17.60;99.90;;;;;;4955762;28;20047;-83
2022/08/03 05:13:20;;;;;;;0.00;0.00;;;17.60;99.90;;;;;;4948259;28;20582;-83
2022/08/03 05:15:48;;;;;;;0.00;0.00;;;17.70;99.90;;;;;;4946504;28;20043;-83
2022/08/03 05:18:15;;;;;;;0.00;0.00;;;17.80;99.90;;;;;;4952146;28;20051;-83
2022/08/03 05:20:42;;;;;;;0.00;0.00;;;17.80;99.90;;;;;;4950589;28;20083;-83
2022/08/03 05:23:10;;;;;;;0.00;0.00;;;17.90;99.90;;;;;;4956502;28;20504;-83
2022/08/03 05:25:37;;;;;;;0.00;0.00;;;18.00;99.90;;;;;;4952701;28;20051;-82
2022/08/03 05:28:05;;;;;;;0.00;0.00;;;18.10;99.90;;;;;;4954094;28;20050;-83
2022/08/03 05:30:31;;;;;;;0.00;0.00;;;18.20;99.90;;;;;;4948960;28;20039;-82
2022/08/03 05:33:01;;;;;;;0.00;0.00;;;18.20;99.90;;;;;;4964368;28;20282;-83
2022/08/03 05:35:28;;;;;;;0.00;0.00;;;18.30;99.90;;;;;;4954213;28;20342;-83
2022/08/03 05:38:16;;;;;;;0.00;0.00;;;18.40;99.90;;;;;;4950050;28;20047;-84
2022/08/03 05:40:55;;;;;;;0.00;0.00;;;18.40;99.90;;;;;;4950869;28;20105;-83
2022/08/03 05:43:23;;;;;;;0.00;0.00;;;18.50;99.90;;;;;;4950520;28;20503;-83
2022/08/03 05:45:50;;;;;;;0.00;0.00;;;18.60;99.90;;;;;;4950335;28;20491;-84
2022/08/03 05:48:37;;;;;;;0.00;0.00;;;18.70;99.90;;;;;;4962702;28;20066;-83
2022/08/03 05:51:06;;;;;;;0.00;0.00;;;18.80;99.90;;;;;;4948784;28;20047;-83
2022/08/03 05:53:34;;;;;;;0.00;0.00;;;18.90;99.90;;;;;;4951946;28;20047;-84
2022/08/03 05:56:01;;;;;;;0.00;0.00;;;19.00;99.90;;;;;;4948670;28;20095;-83
2022/08/03 05:58:40;;;;;;;0.00;0.00;;;19.10;99.90;;;;;;4946583;28;20047;-83
2022/08/03 06:01:07;;;;;;;0.00;0.00;;;19.30;99.90;;;;;;4950725;28;20107;-83
2022/08/03 06:03:34;;;;;;;0.00;0.00;;;19.30;99.90;;;;;;4946368;28;20098;-83
2022/08/03 06:06:01;;;;;;;0.00;0.00;;;19.40;99.90;;;;;;4949309;28;20055;-83
2022/08/03 06:08:28;;;;;;;0.00;0.00;;;19.50;99.90;;;;;;4949856;28;20578;-83
2022/08/03 06:10:56;;;;;;;0.00;0.00;;;19.70;99.90;;;;;;4952187;28;20039;-84
2022/08/03 06:13:22;;;;;;;0.00;0.00;;;19.80;99.90;;;;;;4945825;28;20051;-84
2022/08/03 06:15:49;;;;;;;0.00;0.00;;;20.00;99.90;;;;;;4965776;28;20491;-84
2022/08/03 06:18:16;;;;;;;0.00;0.00;;;20.10;99.90;;;;;;4936702;28;20055;-82
2022/08/03 06:20:43;;;;;;;0.00;0.00;;;20.20;99.90;;;;;;4948045;28;20168;-84
2022/08/03 06:23:13;;;;;;;0.00;0.00;;;;;;;;;;4944596;28;20460;-84
2022/08/03 06:25:43;;;;;;;0.00;0.00;;;20.40;99.90;;;;;;4951133;28;20043;-85
2022/08/03 06:28:13;;;;;;;0.00;0.00;;;20.50;99.90;;;;;;4944390;28;20051;-83
2022/08/03 06:30:59;;;;;;;0.00;0.00;;;20.60;99.90;;;;;;4944457;28;20575;-84
2022/08/03 06:33:27;;;;;;;0.00;0.00;;;20.70;99.90;;;;;;4946221;28;20074;-84
2022/08/03 06:36:13;;;;;;;0.00;0.00;;;20.80;99.90;;;;;;4947194;28;20066;-84
2022/08/03 06:38:40;;;;;;;0.00;0.00;;;20.90;99.90;;;;;;4945508;28;20055;-84
2022/08/03 06:41:07;;;;;;;0.00;0.00;;;21.00;99.90;;;;;;4947170;28;20041;-84
2022/08/03 06:43:36;;;;;;;0.00;0.00;;;21.10;99.90;;;;;;4945840;28;20574;-84
2022/08/03 06:46:23;;;;;;;0.00;0.00;;;21.20;99.90;;;;;;4946501;28;20055;-84
2022/08/03 06:48:50;;;;;;;0.00;0.00;;;21.20;99.90;;;;;;4959976;28;20630;-85
2022/08/03 06:51:16;;;;;;;0.00;0.00;;;21.30;99.90;;;;;;4946126;28;20467;-81
2022/08/03 06:53:43;;;;;;;0.00;0.00;;;21.40;99.90;;;;;;4959118;28;20512;-83
2022/08/03 06:56:10;;;;;;;0.00;0.00;;;21.40;99.90;;;;;;4949187;28;20067;-84
2022/08/03 06:58:38;;;;;;;0.00;0.00;;;21.50;99.90;;;;;;4949571;28;20113;-85
2022/08/03 07:01:05;;;;;;;0.00;0.00;;;21.60;99.90;;;;;;4951551;28;20538;-84
2022/08/03 07:03:32;;;;;;;0.00;0.00;;;21.70;99.90;;;;;;4949242;28;20051;-84
2022/08/03 07:05:59;;;;;;;0.00;0.00;;;21.90;99.90;;;;;;4952653;29;20055;-83
2022/08/03 07:08:26;;;;;;;0.00;0.00;;;22.00;99.90;;;;;;4947137;28;20492;-84
2022/08/03 07:11:00;;;;;;;0.00;0.00;;;22.20;99.90;;;;;;4949211;28;20058;-84
2022/08/03 07:13:27;;;;;;;0.00;0.00;;;;;;;;;;4945154;28;20464;-85
2022/08/03 07:15:55;;;;;;;0.00;0.00;;;22.40;99.90;;;;;;4947702;28;20057;-81
2022/08/03 07:18:22;;;;;;;0.00;0.00;;;22.50;99.90;;;;;;4945943;28;20090;-84
2022/08/03 07:20:55;;;;;;;0.00;0.00;;;22.60;99.90;;;;;;4949195;28;20110;-83
2022/08/03 07:23:22;;;;;;;0.00;0.00;;;22.70;99.90;;;;;;4948885;28;20122;-84
2022/08/03 07:25:49;;;;;;;0.00;0.00;;;22.90;99.90;;;;;;4948915;28;20114;-84
2022/08/03 07:28:16;;;;;;;0.00;0.00;;;22.90;99.90;;;;;;4944037;28;20039;-83
2022/08/03 07:30:43;;;;;;;0.00;0.00;;;23.00;99.90;;;;;;4941130;28;20416;-84
2022/08/03 07:33:11;;;;;;;0.00;0.00;;;23.10;99.90;;;;;;4947420;28;20051;-83
2022/08/03 07:35:38;;;;;;;0.00;0.00;;;23.10;99.90;;;;;;4953859;28;20094;-83
2022/08/03 07:38:05;;;;;;;0.00;0.00;;;23.10;99.90;;;;;;4950332;28;20113;-83
2022/08/03 07:40:33;;;;;;;0.00;0.00;;;23.20;99.90;;;;;;4945220;28;20121;-84
2022/08/03 07:43:02;;;;;;;0.00;0.00;;;23.30;99.90;;;;;;4937886;28;20134;-84
2022/08/03 07:45:29;;;;;;;0.00;0.00;;;23.30;99.90;;;;;;4944787;28;20038;-84
2022/08/03 07:47:56;;;;;;;0.00;0.00;;;23.40;99.90;;;;;;4948370;28;20039;-84
2022/08/03 07:50:24;;;;;;;0.00;0.00;;;23.40;99.90;;;;;;4962076;28;20051;-84
2022/08/03 07:52:52;;;;;;;0.00;0.00;;;23.50;99.90;;;;;;4943302;28;20058;-82
2022/08/03 07:55:22;;;;;;;0.00;0.00;;;23.60;99.90;;;;;;4946996;28;20523;-83
2022/08/03 07:57:59;;;;;;;0.00;0.00;;;23.70;99.90;;;;;;4946896;28;20072;-84
2022/08/03 08:00:26;;;;;;;0.00;0.00;;;23.80;99.90;;;;;;4943467;28;20055;-84
2022/08/03 08:02:52;;;;;;;0.00;0.00;;;24.70;99.90;;;;;;4945522;28;20047;-82
2022/08/03 08:05:19;;;;;;;0.00;0.00;;;24.10;99.90;;;;;;4946646;28;20051;-83
2022/08/03 08:07:47;;;;;;;0.00;0.00;;;23.90;99.90;;;;;;4945655;28;20043;-83
2022/08/03 08:10:17;;;;;;;0.00;0.00;;;24.00;99.90;;;;;;4941178;28;20483;-84
2022/08/03 08:12:44;;;;;;;0.00;0.00;;;24.20;99.90;;;;;;4944887;28;20526;-83
2022/08/03 08:15:12;;;;;;;0.00;0.00;;;24.20;99.90;;;;;;4944845;28;20098;-84
2022/08/03 08:17:46;;;;;;;0.00;0.00;;;24.30;99.90;;;;;;4946438;28;20043;-84
2022/08/03 08:20:16;;;;;;;0.00;0.00;;;24.50;99.90;;;;;;4951230;28;20460;-84
2022/08/03 08:22:56;;;;;;;0.00;0.00;;;24.60;99.90;;;;;;4943313;28;20700;-82
2022/08/03 08:25:24;;;;;;;0.00;0.00;;;24.60;99.90;;;;;;4944560;28;20039;-83
2022/08/03 08:27:51;;;;;;;0.00;0.00;;;24.80;99.90;;;;;;4945582;28;20090;-83
2022/08/03 08:30:38;;;;;;;0.00;0.00;;;24.80;99.90;;;;;;4949361;28;20363;-83
2022/08/03 08:33:05;;;;;;;0.00;0.00;;;24.80;99.90;;;;;;4950127;28;20086;-83
2022/08/03 08:35:31;;;;;;;0.00;0.00;;;24.90;99.90;;;;;;4942721;28;20915;-83
2022/08/03 08:38:00;;;;;;;0.00;0.00;;;25.00;99.70;;;;;;4946119;28;20287;-84
2022/08/03 08:40:31;;;;;;;0.00;0.00;;;25.10;99.70;;;;;;4947665;28;20769;-84
2022/08/03 08:42:58;;;;;;;0.00;0.00;;;25.10;99.90;;;;;;4943101;28;20397;-84
2022/08/03 08:45:25;;;;;;;0.00;0.00;;;25.20;99.80;;;;;;4949195;28;20043;-83
2022/08/03 08:47:56;;;;;;;0.00;0.00;;;25.30;99.60;;;;;;4946999;28;20043;-84
2022/08/03 08:50:30;;;;;;;0.00;0.00;;;25.40;99.80;;;;;;4948664;28;20094;-84
2022/08/03 08:53:02;;;;;;;0.00;0.00;;;25.50;99.60;;;;;;4951583;28;20039;-83
2022/08/03 08:55:30;;;;;;;0.00;0.00;;;25.50;99.60;;;;;;4944545;28;20051;-81
2022/08/03 08:58:20;;;;;;;0.00;0.00;;;25.70;99.40;;;;;;4960536;28;20051;-84
2022/08/03 09:00:47;;;;;;;0.00;0.00;;;25.70;99.50;;;;;;4945644;28;20515;-84
2022/08/03 09:03:15;;;;;;;0.00;0.00;;;25.80;99.90;;;;;;4945371;28;20047;-84
2022/08/03 09:05:55;;;;;;;0.00;0.00;;;27.90;99.90;;;;;;4953278;28;20047;-83
2022/08/03 09:08:23;;;;;;;0.00;0.00;;;25.90;99.60;;;;;;4945453;28;20043;-83
2022/08/03 09:10:50;;;;;;;0.00;0.00;;;25.90;99.00;;;;;;4944973;28;20058;-83
2022/08/03 09:13:18;;;;;;;0.00;0.00;;;;;;;;;;4951014;28;20043;-83
2022/08/03 09:15:45;;;;;;;0.00;0.00;;;26.10;98.80;;;;;;4948140;28;20054;-84
2022/08/03 09:18:29;;;;;;;0.00;0.00;;;26.20;99.10;;;;;;4950054;28;20039;-82
2022/08/03 09:21:12;;;;;;;0.00;0.00;;;26.40;99.20;;;;;;4951430;28;20571;-83
2022/08/03 09:24:01;;;;;;;0.00;0.00;;;26.50;99.00;;;;;;4947234;28;20089;-84
2022/08/03 09:26:32;;;;;;;0.00;0.00;;;26.60;98.20;;;;;;4949471;28;20050;-84
2022/08/03 09:29:01;;;;;;;0.00;0.00;;;26.60;97.80;;;;;;4950382;28;20047;-84
2022/08/03 09:31:38;;;;;;;0.00;0.00;;;26.90;98.00;;;;;;4949193;28;20044;-83
2022/08/03 09:34:11;;;;;;;0.00;0.00;;;26.80;97.50;;;;;;4949727;28;20419;-83
2022/08/03 09:36:40;;;;;;;0.00;0.00;;;26.80;97.00;;;;;;4953131;28;20040;-83
2022/08/03 09:39:10;;;;;;;;;;;26.90;96.90;;;;;;4950875;28;20044;-83
2022/08/03 09:41:38;;;;;;;0.00;0.00;;;27.00;96.60;;;;;;4941686;28;19922;-83
2022/08/03 09:44:05;;;;;;;0.00;0.00;;;27.00;96.30;;;;;;4949323;28;20047;-82
2022/08/03 09:46:47;;;;;;;0.00;0.00;;;27.80;97.60;;;;;;4951964;28;20055;-84
2022/08/03 09:49:16;;;;;;;0.00;0.00;;;27.10;97.00;;;;;;4952662;28;20499;-82
2022/08/03 09:51:44;;;;;;;0.00;0.00;;;27.20;95.50;;;;;;4953243;28;20062;-83
2022/08/03 09:54:33;;;;;;;0.00;0.00;;;27.30;96.00;;;;;;4952822;28;20051;-83
2022/08/03 09:57:00;;;;;;;0.00;0.00;;;27.30;96.00;;;;;;4953515;28;20047;-83
2022/08/03 09:59:29;;;;;;;0.00;0.00;;;27.40;96.40;;;;;;4951979;28;20050;-84
2022/08/03 10:01:58;;;;;;;0.00;0.00;;;27.50;95.70;;;;;;4950008;28;20181;-84
2022/08/03 10:04:26;;;;;;;0.00;0.00;;;27.60;95.50;;;;;;4952670;28;20043;-84
2022/08/03 10:07:05;;;;;;;0.00;0.00;;;27.50;95.70;;;;;;4953582;28;20455;-84
2022/08/03 10:09:33;;;;;;;0.00;0.00;;;27.70;95.20;;;;;;4936917;28;20047;-84
2022/08/03 10:12:08;;;;;;;0.00;0.00;;;27.80;93.90;;;;;;4948521;28;20445;-84
2022/08/03 10:14:37;;;;;;;0.00;0.00;;;27.80;94.30;;;;;;4970823;28;20047;-83
2022/08/03 10:17:04;;;;;;;0.00;0.00;;;27.90;94.50;;;;;;4950063;28;20043;-84
2022/08/03 10:19:31;;;;;;;0.00;0.00;;;28.00;95.10;;;;;;4950886;28;20051;-84
2022/08/03 10:22:02;;;;;;;0.00;0.00;;;28.00;94.60;;;;;;4947345;28;20225;-83
2022/08/03 10:24:32;;;;;;;0.00;0.00;;;28.10;93.90;;;;;;4944680;28;20068;-84
2022/08/03 10:27:04;;;;;;;0.00;0.00;;;28.10;93.90;;;;;;4948093;28;20051;-84
2022/08/03 10:29:36;;;;;;;0.00;0.00;;;28.10;93.40;;;;;;4941365;28;20039;-84
2022/08/03 10:32:08;;;;;;;0.00;0.00;;;28.10;93.10;;;;;;4948975;28;20051;-83
2022/08/03 10:34:39;;;;;;;0.00;0.00;;;28.20;93.30;;;;;;4958091;28;20405;-82
2022/08/03 10:37:12;;;;;;;0.00;0.00;;;28.30;93.70;;;;;;4951195;28;20436;-84
2022/08/03 10:39:52;;;;;;;0.00;0.00;;;28.20;93.00;;;;;;4948980;28;20055;-83
2022/08/03 10:42:23;;;;;;;0.00;0.00;;;28.20;92.50;;;;;;4946162;28;20051;-84
2022/08/03 10:44:59;;;;;;;0.00;0.00;;;28.30;92.50;;;;;;4962791;28;20500;-84
2022/08/03 10:47:26;;;;;;;0.00;0.00;;;28.40;92.60;;;;;;4953765;28;20677;-84
2022/08/03 10:49:53;;;;;;;0.00;0.00;;;28.30;93.10;;;;;;4949356;28;20054;-84
2022/08/03 10:52:20;;;;;;;0.00;0.00;;;28.60;93.30;;;;;;4949115;28;20062;-83
2022/08/03 10:58:50;;;;;;;0.00;0.00;;;28.90;92.60;;;;;;4946239;28;20051;-83
2022/08/03 11:01:51;;;;;;;0.00;0.00;;;28.90;93.10;;;;;;4951832;28;20047;-83
2022/08/03 11:04:28;;;;;;;0.00;0.00;;;29.10;92.50;;;;;;4947822;28;20043;-83
2022/08/03 11:07:14;;;;;;;;;;;29.20;93.10;;;;;;4941389;28;20380;-85
2022/08/03 11:09:42;;;;;;;0.00;0.00;;;29.30;92.50;;;;;;4945958;28;19929;-85
2022/08/03 11:12:21;;;;;;;0.00;0.00;;;29.40;91.80;;;;;;4951456;28;20050;-85
2022/08/03 11:15:00;;;;;;;0.00;0.00;;;29.20;92.40;;;;;;4951708;28;20475;-84
2022/08/03 11:17:27;;;;;;;0.00;0.00;;;29.20;91.30;;;;;;4949863;28;20054;-85
2022/08/03 11:19:54;;;;;;;0.00;0.00;;;;;;;;;;4950191;28;20043;-83
2022/08/03 11:22:24;;;;;;;0.00;0.00;;;29.20;91.00;;;;;;4945440;28;20066;-84
2022/08/03 11:24:58;;;;;;;0.00;0.00;;;29.20;91.30;;;;;;4947604;28;20043;-83
2022/08/03 11:27:27;;;;;;;0.00;0.00;;;29.00;91.70;;;;;;4950003;28;20126;-85
2022/08/03 11:29:55;;;;;;;0.00;0.00;;;29.00;92.00;;;;;;4952006;28;20051;-83
2022/08/03 11:32:57;;;;;;;0.00;0.00;;;29.00;91.70;;;;;;4947651;28;20442;-83
2022/08/03 11:35:26;;;;;;;0.00;0.00;;;29.10;92.60;;;;;;4943274;28;20470;-85
2022/08/03 11:38:10;;;;;;;0.00;0.00;;;29.20;92.60;;;;;;4948255;28;20431;-85
2022/08/03 11:40:40;;;;;;;0.00;0.00;;;29.30;92.30;;;;;;4951743;28;20035;-85
2022/08/03 11:43:08;;;;;;;0.00;0.00;;;29.30;92.00;;;;;;4942505;28;20047;-84
2022/08/03 11:45:36;;;;;;;0.00;0.00;;;31.40;92.90;;;;;;4948306;28;20051;-84
2022/08/03 11:48:15;;;;;;;0.00;0.00;;;29.60;91.50;;;;;;4963778;28;20109;-83
2022/08/03 11:50:44;;;;;;;0.00;0.00;;;29.40;91.90;;;;;;4950190;28;20495;-83
2022/08/03 11:53:17;;;;;;;0.00;0.00;;;29.40;91.90;;;;;;4948708;28;20036;-83
2022/08/03 11:55:47;;;;;;;0.00;0.00;;;29.50;91.90;;;;;;4945590;28;20420;-85
2022/08/03 11:58:16;;;;;;;0.00;0.00;;;29.60;93.10;;;;;;4950981;28;20047;-85
2022/08/03 12:01:04;;;;;;;0.00;0.00;;;29.60;92.20;;;;;;4947807;28;20389;-84
2022/08/03 12:03:33;;;;;;;0.00;0.00;;;29.70;91.10;;;;;;4943539;28;20047;-84
2022/08/03 12:06:01;;;;;;;0.00;0.00;;;29.70;91.30;;;;;;4948015;28;20047;-85
2022/08/03 12:08:31;;;;;;;0.00;0.00;;;29.80;90.90;;;;;;4945922;28;20043;-84
2022/08/03 12:11:01;;;;;;;0.00;0.00;;;29.80;90.40;;;;;;4943805;28;20055;-83
2022/08/03 12:13:37;;;;;;;0.00;0.00;;;29.90;90.30;;;;;;4942343;28;20047;-84
2022/08/03 12:16:24;;;;;;;0.00;0.00;;;29.80;90.10;;;;;;4945543;28;20055;-84
2022/08/03 12:18:56;;;;;;;0.00;0.00;;;29.80;90.20;;;;;;4950450;28;20058;-83
2022/08/03 12:21:23;;;;;;;0.00;0.00;;;29.90;88.40;;;;;;4963837;28;20063;-84
2022/08/03 12:23:54;;;;;;;0.00;0.00;;;29.90;89.10;;;;;;4948063;28;20043;-84
2022/08/03 12:26:21;;;;;;;0.00;0.00;;;30.10;90.90;;;;;;4951117;28;20050;-84
2022/08/03 12:28:49;;;;;;;0.00;0.00;;;30.00;90.60;;;;;;4944915;28;20393;-83
2022/08/03 12:31:16;;;;;;;0.00;0.00;;;30.00;88.80;;;;;;4950796;28;20048;-84
2022/08/03 12:33:58;;;;;;;0.00;0.00;;;30.00;91.20;;;;;;4941531;28;20067;-83
2022/08/03 12:36:26;;;;;;;0.00;0.00;;;30.10;88.70;;;;;;4962269;28;20388;-85
2022/08/03 12:38:55;;;;;;;0.00;0.00;;;30.10;88.60;;;;;;4947086;28;20621;-85
2022/08/03 12:41:28;;;;;;;0.00;0.00;;;30.00;88.90;;;;;;4947622;28;20087;-84
2022/08/03 12:43:55;;;;;;;0.00;0.00;;;29.90;90.50;;;;;;4946787;28;20074;-84
2022/08/03 12:46:28;;;;;;;0.00;0.00;;;30.10;90.80;;;;;;4948063;28;20556;-83
2022/08/03 12:49:07;;;;;;;0.00;0.00;;;30.20;90.20;;;;;;4940615;28;20235;-85
2022/08/03 12:51:36;;;;;;;0.00;0.00;;;30.30;89.00;;;;;;4945560;28;20077;-84
2022/08/03 12:54:04;;;;;;;0.00;0.00;;;30.30;89.90;;;;;;4941373;28;20524;-84
2022/08/03 12:56:31;;;;;;;0.00;0.00;;;30.40;90.20;;;;;;4945503;28;20098;-84
2022/08/03 12:58:57;;;;;;;0.00;0.00;;;30.30;87.70;;;;;;4947669;28;20050;-85
2022/08/03 13:01:26;;;;;;;0.00;0.00;;;30.30;90.00;;;;;;4952643;28;20048;-84
2022/08/03 13:03:53;;;;;;;0.00;0.00;;;30.40;89.60;;;;;;4945083;28;20047;-85
2022/08/03 13:06:23;;;;;;;0.00;0.00;;;30.50;90.10;;;;;;4947503;28;20519;-85
2022/08/03 13:09:02;;;;;;;0.00;0.00;;;30.50;89.10;;;;;;4946472;28;20043;-84
2022/08/03 13:11:29;;;;;;;0.00;0.00;;;30.50;88.40;;;;;;4943321;28;20051;-84
2022/08/03 13:14:16;;;;;;;0.00;0.00;;;30.50;89.70;;;;;;4950401;28;20051;-84
2022/08/03 13:16:46;;;;;;;0.00;0.00;;;30.50;87.40;;;;;;4949608;28;20062;-84
2022/08/03 13:19:13;;;;;;;0.00;0.00;;;30.50;88.60;;;;;;4951211;28;20043;-84
2022/08/03 13:21:43;;;;;;;0.00;0.00;;;30.30;87.30;;;;;;4948054;28;20036;-84
2022/08/03 13:24:30;;;;;;;0.00;0.00;;;30.30;87.60;;;;;;4948618;28;20055;-83
2022/08/03 13:26:58;;;;;;;0.00;0.00;;;;;;;;;;4948671;28;20050;-85